Disclaimer

Please do not use the information listed here in-flight or in-navigation, as they are not provided to us by the airports but are provided by volunteers, so they might be outdated.

Search


Regions


Airport information page

Radio informations:
Tower (TWR) - 118.7 MHz
Automatic Terminal Information Service (ATIS) - 117.7 MHz

Airport informations:
Latitude: 66° 33' 53.36" N
Longitude: 025° 49' 49.48" E
Elevation: 642 feet - 196 meters
Operating hours: N/A
Operating agency: Military-civil joint use airport
Timezone: UTC+2(+3DT)
Fuel: Jet A1, without icing nhibitor.

100/130 MIL Spec, low lead, aviation gasoline (BLUE)

Runway information:
03/21 - 9849 x 197 feet< - >3002 x 60 meters

Recent METARs:
EFRO 181920Z AUTO 21003KT 9000 NCD M06/M06 Q1041
EFRO 181950Z AUTO 20005KT CAVOK M05/M06 Q1040
EFRO 182020Z AUTO 22007KT CAVOK M05/M06 Q1040

Airport on the map: